Cosco Melbourne — V7IF5 — position and weather

sailwx.info

Track history (hours):
 
Tides and Currents Weather Stations Pressure Air Temp Water Temp Dewpoint Dewpoint Depression Visibility Wind Speed Wind Dir Waves Ship Positions

Cosco Melbourne

Last reported at 2014-Sep-10 21:28 UTC. Time now 2014-Sep-16 02:57 UTC.
Position N 36°48' W 026°55'.

Type: Ship (hazmat cat A). MMSI: 538002366.

Date/timePositionNaut miles runAvg speedWind from/ knotsBaromVisibWave heightAir tempDewpointWater temp
2014-Sep-10 21:28N 36°48' W 026°55'1616.8
2014-Sep-10 20:29N 36°47' W 026°34'1617.0
2014-Sep-10 19:33N 36°47' W 026°15'1717.2
2014-Sep-10 18:33N 36°46' W 025°53'1716.8
2014-Sep-10 17:33N 36°46' W 025°32'1717.0
2014-Sep-10 16:33N 36°45' W 025°11'1717.1
2014-Sep-10 15:33N 36°44' W 024°50'1716.6
2014-Sep-10 14:33N 36°44' W 024°29'1716.8
2014-Sep-10 13:33N 36°43' W 024°08'1716.8
2014-Sep-10 12:33N 36°43' W 023°47'1716.8
2014-Sep-10 11:33N 36°42' W 023°26'  
2014-Sep-08 06:19N 36°02' W 005°22'16815.6
2014-Sep-07 19:33N 36°35' W 001°58'2216.1
2014-Sep-07 18:12N 36°49' W 001°38'1015.6
2014-Sep-07 17:33N 36°56' W 001°28'1615.9
2014-Sep-07 16:33N 37°06' W 001°13'1715.9
2014-Sep-07 15:30N 37°17' W 000°58'1516.4
2014-Sep-07 14:34N 37°28' W 000°43'1515.3
2014-Sep-07 13:33N 37°39' W 000°30'1615.7
2014-Sep-07 12:32N 37°52' W 000°19'1615.9
2014-Sep-07 11:33N 38°05' W 000°08'1615.6
2014-Sep-07 10:31N 38°19' E 000°03'5813.2
2014-Sep-07 06:07N 39°17' W 000°06'915.6
2014-Sep-07 05:34N 39°23' W 000°14'5 5.3
2014-Sep-07 04:32N 39°26' W 000°20'0 0.0
2014-Sep-07 03:31N 39°26' W 000°20'0 0.0
2014-Sep-07 02:31N 39°26' W 000°20'0 0.0
2014-Sep-07 01:33N 39°26' W 000°20'0 0.0
2014-Sep-07 00:33N 39°26' W 000°20'0 0.0
2014-Sep-06 23:32N 39°26' W 000°20'0 0.0
2014-Sep-06 22:32N 39°26' W 000°20'0 0.0
2014-Sep-06 21:32N 39°26' W 000°20'0 0.0
2014-Sep-06 20:31N 39°26' W 000°20'0 0.0
2014-Sep-06 19:31N 39°26' W 000°20'0 0.0
2014-Sep-06 18:33N 39°26' W 000°20'0 0.0
2014-Sep-06 17:33N 39°26' W 000°20'0 0.0
2014-Sep-06 16:32N 39°26' W 000°20'0 0.0
2014-Sep-06 15:32N 39°26' W 000°20'0 0.0
2014-Sep-06 14:32N 39°26' W 000°20'0 0.0
2014-Sep-06 13:31N 39°26' W 000°20'0 0.1
2014-Sep-06 12:33N 39°26' W 000°19'2 2.5
2014-Sep-06 11:33N 39°25' W 000°17'1 0.5
2014-Sep-06 10:33N 39°25' W 000°16'4 4.0
2014-Sep-06 09:33N 39°24' W 000°11'17114.1
2014-Sep-05 21:27N 38°50' E 003°25'23114.6
2014-Sep-05 05:33N 38°02' E 008°14'4714.2
2014-Sep-05 02:14N 37°52' E 009°12'2514.5
2014-Sep-05 00:29N 37°47' E 009°44'2914.3
2014-Sep-04 22:27N 37°41' E 010°19'3414.1
2014-Sep-04 20:04N 37°31' E 011°00'814.2
2014-Sep-04 19:30N 37°28' E 011°09'3314.3
2014-Sep-04 17:11N 37°10' E 011°45'1114.5
2014-Sep-04 16:27N 37°04' E 011°56'3314.2
2014-Sep-04 14:09N 36°48' E 012°32'914.5
2014-Sep-04 13:32N 36°45' E 012°42'1714.3
2014-Sep-04 12:21N 36°41' E 013°02'1214.6
2014-Sep-04 11:33N 36°38' E 013°16'1614.3
2014-Sep-04 10:28N 36°34' E 013°35'  
Track history (hours):
 
Tides and Currents Weather Stations Pressure Air Temp Water Temp Dewpoint Dewpoint Depression Visibility Wind Speed Wind Dir Waves Ship Positions

Cosco Melbourne

Last reported at 2014-Sep-10 21:28 UTC. Time now 2014-Sep-16 02:57 UTC.
Position N 36°48' W 026°55'.

Type: Ship (hazmat cat A). MMSI: 538002366.

Date/timePositionNaut miles runAvg speedWind from/ knotsBaromVisibWave heightAir tempDewpointWater temp
2014-Sep-10 21:28N 36°48' W 026°55'1616.8
2014-Sep-10 20:29N 36°47' W 026°34'1617.0
2014-Sep-10 19:33N 36°47' W 026°15'1717.2
2014-Sep-10 18:33N 36°46' W 025°53'1716.8
2014-Sep-10 17:33N 36°46' W 025°32'1717.0
2014-Sep-10 16:33N 36°45' W 025°11'1717.1
2014-Sep-10 15:33N 36°44' W 024°50'1716.6
2014-Sep-10 14:33N 36°44' W 024°29'1716.8
2014-Sep-10 13:33N 36°43' W 024°08'1716.8
2014-Sep-10 12:33N 36°43' W 023°47'1716.8
2014-Sep-10 11:33N 36°42' W 023°26'  
2014-Sep-08 06:19N 36°02' W 005°22'16815.6
2014-Sep-07 19:33N 36°35' W 001°58'2216.1
2014-Sep-07 18:12N 36°49' W 001°38'1015.6
2014-Sep-07 17:33N 36°56' W 001°28'1615.9
2014-Sep-07 16:33N 37°06' W 001°13'1715.9
2014-Sep-07 15:30N 37°17' W 000°58'1516.4
2014-Sep-07 14:34N 37°28' W 000°43'1515.3
2014-Sep-07 13:33N 37°39' W 000°30'1615.7
2014-Sep-07 12:32N 37°52' W 000°19'1615.9
2014-Sep-07 11:33N 38°05' W 000°08'1615.6
2014-Sep-07 10:31N 38°19' E 000°03'5813.2
2014-Sep-07 06:07N 39°17' W 000°06'915.6
2014-Sep-07 05:34N 39°23' W 000°14'5 5.3
2014-Sep-07 04:32N 39°26' W 000°20'0 0.0
2014-Sep-07 03:31N 39°26' W 000°20'0 0.0
2014-Sep-07 02:31N 39°26' W 000°20'0 0.0
2014-Sep-07 01:33N 39°26' W 000°20'0 0.0
2014-Sep-07 00:33N 39°26' W 000°20'0 0.0
2014-Sep-06 23:32N 39°26' W 000°20'0 0.0
2014-Sep-06 22:32N 39°26' W 000°20'0 0.0
2014-Sep-06 21:32N 39°26' W 000°20'0 0.0
2014-Sep-06 20:31N 39°26' W 000°20'0 0.0
2014-Sep-06 19:31N 39°26' W 000°20'0 0.0
2014-Sep-06 18:33N 39°26' W 000°20'0 0.0
2014-Sep-06 17:33N 39°26' W 000°20'0 0.0
2014-Sep-06 16:32N 39°26' W 000°20'0 0.0
2014-Sep-06 15:32N 39°26' W 000°20'0 0.0
2014-Sep-06 14:32N 39°26' W 000°20'0 0.0
2014-Sep-06 13:31N 39°26' W 000°20'0 0.1
2014-Sep-06 12:33N 39°26' W 000°19'2 2.5
2014-Sep-06 11:33N 39°25' W 000°17'1 0.5
2014-Sep-06 10:33N 39°25' W 000°16'4 4.0
2014-Sep-06 09:33N 39°24' W 000°11'17114.1
2014-Sep-05 21:27N 38°50' E 003°25'23114.6
2014-Sep-05 05:33N 38°02' E 008°14'4714.2
2014-Sep-05 02:14N 37°52' E 009°12'2514.5
2014-Sep-05 00:29N 37°47' E 009°44'2914.3
2014-Sep-04 22:27N 37°41' E 010°19'3414.1
2014-Sep-04 20:04N 37°31' E 011°00'814.2
2014-Sep-04 19:30N 37°28' E 011°09'3314.3
2014-Sep-04 17:11N 37°10' E 011°45'1114.5
2014-Sep-04 16:27N 37°04' E 011°56'3314.2
2014-Sep-04 14:09N 36°48' E 012°32'914.5
2014-Sep-04 13:32N 36°45' E 012°42'1714.3
2014-Sep-04 12:21N 36°41' E 013°02'1214.6
2014-Sep-04 11:33N 36°38' E 013°16'1614.3
2014-Sep-04 10:28N 36°34' E 013°35'  

Dump ship's entire track history